Time,TemperatureF,DewpointF,PressureIn,WindDirection,WindDirectionDegrees,WindSpeedMPH,WindSpeedGustMPH,Humidity,HourlyPrecipIn,Conditions,Clouds,dailyrainin,SoftwareType,DateUTC
2013-02-04 00:09:00,45.4,39.0,30.15,SW,233,0.0,0.0,78,0.00,,,0.00,weatherlink.com 1.10,2013-02-04 08:09:00,
2013-02-04 00:24:00,45.7,39.0,30.15,West,259,0.0,0.0,77,0.00,,,0.00,weatherlink.com 1.10,2013-02-04 08:24:00,
2013-02-04 00:39:00,45.7,39.0,30.15,West,259,0.0,0.0,77,0.00,,,0.00,weatherlink.com 1.10,2013-02-04 08:39:00,
2013-02-04 00:54:00,45.8,39.0,30.15,West,259,0.0,0.0,78,0.00,,,0.00,weatherlink.com 1.10,2013-02-04 08:54:00,
2013-02-04 01:09:00,46.2,40.0,30.15,West,259,0.0,0.0,78,0.00,,,0.00,weatherlink.com 1.10,2013-02-04 09:09:00,
2013-02-04 01:24:00,46.5,40.0,30.15,West,259,0.0,0.0,78,0.00,,,0.00,weatherlink.com 1.10,2013-02-04 09:24:00,
2013-02-04 01:39:00,46.6,40.0,30.15,South,191,0.0,2.0,78,0.00,,,0.00,weatherlink.com 1.10,2013-02-04 09:39:00,
2013-02-04 01:54:00,46.7,40.0,30.15,South,191,0.0,0.0,77,0.00,,,0.00,weatherlink.com 1.10,2013-02-04 09:54:00,
2013-02-04 02:09:00,47.5,41.0,30.15,South,191,0.0,1.0,77,0.00,,,0.00,weatherlink.com 1.10,2013-02-04 10:09:00,
2013-02-04 02:24:00,47.5,40.0,30.14,South,191,0.0,0.0,75,0.00,,,0.00,weatherlink.com 1.10,2013-02-04 10:24:00,
2013-02-04 02:39:00,48.4,37.0,30.14,SSW,210,0.0,1.0,66,0.00,,,0.00,weatherlink.com 1.10,2013-02-04 10:39:00,
2013-02-04 02:54:00,49.8,37.0,30.14,West,266,0.0,1.0,62,0.00,,,0.00,weatherlink.com 1.10,2013-02-04 10:54:00,
2013-02-04 03:09:00,47.6,39.0,30.13,West,266,0.0,0.0,71,0.00,,,0.00,weatherlink.com 1.10,2013-02-04 11:09:00,
2013-02-04 03:24:00,46.4,37.0,30.13,West,266,0.0,0.0,69,0.00,,,0.00,weatherlink.com 1.10,2013-02-04 11:24:00,
2013-02-04 03:39:00,46.1,37.0,30.13,West,264,0.0,0.0,71,0.00,,,0.00,weatherlink.com 1.10,2013-02-04 11:39:00,
2013-02-04 03:54:00,45.9,38.0,30.12,West,264,0.0,0.0,75,0.00,,,0.00,weatherlink.com 1.10,2013-02-04 11:54:00,
2013-02-04 04:09:00,44.7,37.0,30.13,West,264,0.0,0.0,75,0.00,,,0.00,weatherlink.com 1.10,2013-02-04 12:09:00,
2013-02-04 04:25:00,45.4,38.0,30.13,West,264,0.0,0.0,76,0.00,,,0.00,weatherlink.com 1.10,2013-02-04 12:25:00,
2013-02-04 04:39:00,46.4,39.0,30.12,West,262,0.0,0.0,74,0.00,,,0.00,weatherlink.com 1.10,2013-02-04 12:39:00,
2013-02-04 04:54:00,47.1,38.0,30.13,West,263,0.0,0.0,72,0.00,,,0.00,weatherlink.com 1.10,2013-02-04 12:54:00,
2013-02-04 05:09:00,47.4,38.0,30.13,West,262,0.0,0.0,71,0.00,,,0.00,weatherlink.com 1.10,2013-02-04 13:09:00,
2013-02-04 05:24:00,47.2,38.0,30.13,West,262,0.0,0.0,70,0.00,,,0.00,weatherlink.com 1.10,2013-02-04 13:24:00,
2013-02-04 05:39:00,47.2,38.0,30.12,West,262,0.0,0.0,71,0.00,,,0.00,weatherlink.com 1.10,2013-02-04 13:39:00,
2013-02-04 05:55:00,46.9,38.0,30.12,West,262,0.0,0.0,71,0.00,,,0.00,weatherlink.com 1.10,2013-02-04 13:55:00,
2013-02-04 06:10:00,47.0,38.0,30.12,West,262,0.0,0.0,70,0.00,,,0.00,weatherlink.com 1.10,2013-02-04 14:10:00,
2013-02-04 06:24:00,46.6,38.0,30.12,West,262,0.0,0.0,71,0.00,,,0.00,weatherlink.com 1.10,2013-02-04 14:24:00,
2013-02-04 06:39:00,46.3,37.0,30.13,West,262,0.0,0.0,70,0.00,,,0.00,weatherlink.com 1.10,2013-02-04 14:39:00,
2013-02-04 06:54:00,45.2,37.0,30.13,West,262,0.0,0.0,72,0.00,,,0.00,weatherlink.com 1.10,2013-02-04 14:54:00,
2013-02-04 07:09:00,44.5,36.0,30.14,West,262,0.0,0.0,72,0.00,,,0.00,weatherlink.com 1.10,2013-02-04 15:09:00,
2013-02-04 07:24:00,45.0,36.0,30.14,West,262,0.0,0.0,72,0.00,,,0.00,weatherlink.com 1.10,2013-02-04 15:24:00,
2013-02-04 07:39:00,45.0,36.0,30.14,West,262,0.0,0.0,72,0.00,,,0.00,weatherlink.com 1.10,2013-02-04 15:39:00,
2013-02-04 07:54:00,46.0,39.0,30.14,West,262,0.0,0.0,75,0.00,,,0.00,weatherlink.com 1.10,2013-02-04 15:54:00,
2013-02-04 08:09:00,46.1,39.0,30.14,West,262,0.0,0.0,76,0.00,,,0.00,weatherlink.com 1.10,2013-02-04 16:09:00,
2013-02-04 08:24:00,48.8,39.0,30.15,SE,145,0.0,0.0,70,0.00,,,0.00,weatherlink.com 1.10,2013-02-04 16:24:00,
2013-02-04 08:40:00,52.0,38.0,30.15,ESE,114,0.0,2.0,59,0.00,,,0.00,weatherlink.com 1.10,2013-02-04 16:40:00,
2013-02-04 08:55:00,53.8,38.0,30.15,SE,127,0.0,1.0,55,0.00,,,0.00,weatherlink.com 1.10,2013-02-04 16:55:00,
2013-02-04 09:10:00,54.9,39.0,30.16,ESE,117,0.0,1.0,55,0.00,,,0.00,weatherlink.com 1.10,2013-02-04 17:10:00,
2013-02-04 09:25:00,56.3,38.0,30.15,ENE,71,0.0,0.0,51,0.00,,,0.00,weatherlink.com 1.10,2013-02-04 17:25:00,
2013-02-04 09:40:00,56.8,41.0,30.16,ENE,75,2.0,3.0,57,0.00,,,0.00,weatherlink.com 1.10,2013-02-04 17:40:00,
2013-02-04 09:55:00,58.5,42.0,30.16,WNW,290,0.0,2.0,54,0.00,,,0.00,weatherlink.com 1.10,2013-02-04 17:55:00,
2013-02-04 10:10:00,57.1,38.0,30.16,East,85,1.0,3.0,50,0.00,,,0.00,weatherlink.com 1.10,2013-02-04 18:10:00,
2013-02-04 10:25:00,58.4,41.0,30.16,NNW,348,1.0,1.0,52,0.00,,,0.00,weatherlink.com 1.10,2013-02-04 18:25:00,
2013-02-04 10:40:00,59.1,40.0,30.16,ENE,64,2.0,3.0,50,0.00,,,0.00,weatherlink.com 1.10,2013-02-04 18:40:00,
2013-02-04 10:55:00,58.9,42.0,30.15,NE,46,1.0,3.0,53,0.00,,,0.00,weatherlink.com 1.10,2013-02-04 18:55:00,
2013-02-04 11:10:00,60.5,40.0,30.15,East,96,2.0,4.0,48,0.00,,,0.00,weatherlink.com 1.10,2013-02-04 19:10:00,
2013-02-04 11:25:00,60.5,36.0,30.15,East,92,1.0,3.0,41,0.00,,,0.00,weatherlink.com 1.10,2013-02-04 19:25:00,
2013-02-04 11:40:00,61.7,36.0,30.14,ESE,110,1.0,2.0,39,0.00,,,0.00,weatherlink.com 1.10,2013-02-04 19:40:00,
2013-02-04 11:55:00,62.6,37.0,30.14,East,91,1.0,3.0,39,0.00,,,0.00,weatherlink.com 1.10,2013-02-04 19:55:00,
2013-02-04 12:10:00,63.0,39.0,30.13,East,79,2.0,4.0,41,0.00,,,0.00,weatherlink.com 1.10,2013-02-04 20:10:00,
2013-02-04 12:25:00,62.8,38.0,30.12,ENE,78,1.0,5.0,40,0.00,,,0.00,weatherlink.com 1.10,2013-02-04 20:25:00,
2013-02-04 12:40:00,63.2,37.0,30.11,ESE,102,0.0,5.0,38,0.00,,,0.00,weatherlink.com 1.10,2013-02-04 20:40:00,
2013-02-04 12:55:00,63.5,40.0,30.11,SSE,166,2.0,5.0,42,0.00,,,0.00,weatherlink.com 1.10,2013-02-04 20:55:00,
2013-02-04 13:10:00,64.1,40.0,30.10,SE,131,1.0,4.0,42,0.00,,,0.00,weatherlink.com 1.10,2013-02-04 21:10:00,
2013-02-04 13:26:00,63.9,40.0,30.09,ENE,63,1.0,5.0,42,0.00,,,0.00,weatherlink.com 1.10,2013-02-04 21:26:00,
2013-02-04 13:40:00,64.8,40.0,30.09,NNE,27,2.0,4.0,40,0.00,,,0.00,weatherlink.com 1.10,2013-02-04 21:40:00,
2013-02-04 13:55:00,64.6,39.0,30.08,ENE,75,2.0,3.0,39,0.00,,,0.00,weatherlink.com 1.10,2013-02-04 21:55:00,
2013-02-04 14:11:00,64.2,39.0,30.07,NE,56,0.0,3.0,40,0.00,,,0.00,weatherlink.com 1.10,2013-02-04 22:11:00,
2013-02-04 14:25:00,63.6,39.0,30.07,East,86,0.0,2.0,40,0.00,,,0.00,weatherlink.com 1.10,2013-02-04 22:25:00,
2013-02-04 14:41:00,63.2,40.0,30.07,SE,124,1.0,2.0,42,0.00,,,0.00,weatherlink.com 1.10,2013-02-04 22:41:00,
2013-02-04 14:56:00,62.8,40.0,30.07,ENE,77,1.0,3.0,44,0.00,,,0.00,weatherlink.com 1.10,2013-02-04 22:56:00,
2013-02-04 15:11:00,62.8,42.0,30.07,NE,46,0.0,3.0,47,0.00,,,0.00,weatherlink.com 1.10,2013-02-04 23:11:00,
2013-02-04 15:26:00,62.3,42.0,30.07,East,100,1.0,3.0,47,0.00,,,0.00,weatherlink.com 1.10,2013-02-04 23:26:00,
2013-02-04 15:41:00,62.1,41.0,30.07,East,97,0.0,2.0,47,0.00,,,0.00,weatherlink.com 1.10,2013-02-04 23:41:00,
2013-02-04 15:56:00,61.4,42.0,30.07,ESE,120,0.0,2.0,50,0.00,,,0.00,weatherlink.com 1.10,2013-02-04 23:56:00,
2013-02-04 16:11:00,60.9,43.0,30.07,SE,139,1.0,3.0,52,0.00,,,0.00,weatherlink.com 1.10,2013-02-05 00:11:00,
2013-02-04 16:26:00,60.3,33.0,30.07,SW,221,1.0,4.0,36,0.00,,,0.00,weatherlink.com 1.10,2013-02-05 00:26:00,
2013-02-04 16:41:00,59.5,33.0,30.07,SE,142,1.0,3.0,37,0.00,,,0.00,weatherlink.com 1.10,2013-02-05 00:41:00,
2013-02-04 16:56:00,58.6,34.0,30.07,SE,143,1.0,2.0,39,0.00,,,0.00,weatherlink.com 1.10,2013-02-05 00:56:00,
2013-02-04 17:11:00,56.9,33.0,30.07,SSW,205,0.0,1.0,41,0.00,,,0.00,weatherlink.com 1.10,2013-02-05 01:11:00,
2013-02-04 17:26:00,55.4,31.0,30.07,SSE,151,0.0,1.0,40,0.00,,,0.00,weatherlink.com 1.10,2013-02-05 01:26:00,
2013-02-04 17:41:00,53.4,32.0,30.06,SSE,150,0.0,0.0,44,0.00,,,0.00,weatherlink.com 1.10,2013-02-05 01:41:00,
2013-02-04 17:56:00,52.9,31.0,30.06,WSW,253,1.0,1.0,44,0.00,,,0.00,weatherlink.com 1.10,2013-02-05 01:56:00,
2013-02-04 18:11:00,52.9,36.0,30.06,WSW,253,0.0,1.0,54,0.00,,,0.00,weatherlink.com 1.10,2013-02-05 02:11:00,
2013-02-04 18:26:00,53.5,40.0,30.06,West,268,1.0,1.0,61,0.00,,,0.00,weatherlink.com 1.10,2013-02-05 02:26:00,
2013-02-04 18:41:00,53.0,42.0,30.06,West,267,0.0,1.0,66,0.00,,,0.00,weatherlink.com 1.10,2013-02-05 02:41:00,
2013-02-04 18:56:00,52.7,42.0,30.07,West,266,0.0,1.0,67,0.00,,,0.00,weatherlink.com 1.10,2013-02-05 02:56:00,
2013-02-04 19:26:00,50.9,40.0,30.06,West,267,0.0,1.0,67,0.00,,,0.00,weatherlink.com 1.10,2013-02-05 03:26:00,
2013-02-04 19:41:00,50.0,40.0,30.06,West,267,0.0,1.0,68,0.00,,,0.00,weatherlink.com 1.10,2013-02-05 03:41:00,
2013-02-04 19:56:00,50.3,41.0,30.06,West,267,0.0,1.0,71,0.00,,,0.00,weatherlink.com 1.10,2013-02-05 03:56:00,
2013-02-04 20:11:00,50.6,41.0,30.06,West,274,1.0,1.0,71,0.00,,,0.00,weatherlink.com 1.10,2013-02-05 04:11:00,
2013-02-04 20:26:00,50.9,41.0,30.06,WNW,287,0.0,1.0,69,0.00,,,0.00,weatherlink.com 1.10,2013-02-05 04:26:00,
2013-02-04 20:41:00,50.8,42.0,30.06,WNW,297,1.0,2.0,71,0.00,,,0.00,weatherlink.com 1.10,2013-02-05 04:41:00,
2013-02-04 20:56:00,50.5,42.0,30.06,West,276,0.0,0.0,72,0.00,,,0.00,weatherlink.com 1.10,2013-02-05 04:56:00,
2013-02-04 21:11:00,49.5,42.0,30.06,WSW,238,0.0,0.0,74,0.00,,,0.00,weatherlink.com 1.10,2013-02-05 05:11:00,
2013-02-04 21:26:00,49.5,41.0,30.06,SW,235,0.0,1.0,73,0.00,,,0.00,weatherlink.com 1.10,2013-02-05 05:26:00,
2013-02-04 21:41:00,49.1,40.0,30.06,WSW,253,0.0,1.0,71,0.00,,,0.00,weatherlink.com 1.10,2013-02-05 05:41:00,
2013-02-04 21:56:00,46.9,41.0,30.06,West,263,0.0,1.0,79,0.00,,,0.00,weatherlink.com 1.10,2013-02-05 05:56:00,
2013-02-04 22:11:00,49.4,40.0,30.06,NW,323,0.0,1.0,71,0.00,,,0.00,weatherlink.com 1.10,2013-02-05 06:11:00,
2013-02-04 22:26:00,49.3,41.0,30.06,West,263,1.0,1.0,72,0.00,,,0.00,weatherlink.com 1.10,2013-02-05 06:26:00,
2013-02-04 22:41:00,47.9,40.0,30.06,West,262,0.0,1.0,73,0.00,,,0.00,weatherlink.com 1.10,2013-02-05 06:41:00,
2013-02-04 22:56:00,46.8,40.0,30.07,West,272,1.0,1.0,77,0.00,,,0.00,weatherlink.com 1.10,2013-02-05 06:56:00,
2013-02-04 23:11:00,47.0,41.0,30.07,West,273,1.0,1.0,79,0.00,,,0.00,weatherlink.com 1.10,2013-02-05 07:11:00,
2013-02-04 23:26:00,46.2,41.0,30.07,West,273,1.0,1.0,81,0.00,,,0.00,weatherlink.com 1.10,2013-02-05 07:26:00,
2013-02-04 23:41:00,44.5,40.0,30.06,West,271,0.0,0.0,83,0.00,,,0.00,weatherlink.com 1.10,2013-02-05 07:41:00,
2013-02-04 23:56:00,44.3,40.0,30.06,West,271,0.0,0.0,85,0.00,,,0.00,weatherlink.com 1.10,2013-02-05 07:56:00,